sensor_id;sensor_type;location;lat;lon;timestamp;pressure;altitude;pressure_sealevel;temperature;humidity
63739;BME280;68816;45.558;10.070;2023-05-25T00:01:17;99814.06;;;17.59;74.41
63739;BME280;68816;45.558;10.070;2023-05-25T00:03:42;99809.06;;;17.61;74.69
63739;BME280;68816;45.558;10.070;2023-05-25T00:06:10;99809.06;;;17.61;75.01
63739;BME280;68816;45.558;10.070;2023-05-25T00:08:39;99816.31;;;17.62;76.33
63739;BME280;68816;45.558;10.070;2023-05-25T00:11:05;99816.34;;;17.52;75.36
63739;BME280;68816;45.558;10.070;2023-05-25T00:13:30;99802.13;;;17.44;76.91
63739;BME280;68816;45.558;10.070;2023-05-25T00:15:56;99816.56;;;17.66;77.10
63739;BME280;68816;45.558;10.070;2023-05-25T00:18:22;99812.97;;;17.55;77.09
63739;BME280;68816;45.558;10.070;2023-05-25T00:20:49;99810.13;;;17.65;76.01
63739;BME280;68816;45.558;10.070;2023-05-25T00:23:18;99807.31;;;17.71;74.42
63739;BME280;68816;45.558;10.070;2023-05-25T00:25:44;99806.44;;;17.80;74.53
63739;BME280;68816;45.558;10.070;2023-05-25T00:28:10;99813.56;;;17.52;74.16
63739;BME280;68816;45.558;10.070;2023-05-25T00:30:36;99812.97;;;17.60;76.06
63739;BME280;68816;45.558;10.070;2023-05-25T00:33:01;99822.47;;;17.64;76.45
63739;BME280;68816;45.558;10.070;2023-05-25T00:35:27;99817.09;;;17.73;73.87
63739;BME280;68816;45.558;10.070;2023-05-25T00:37:53;99826.28;;;17.79;74.97
63739;BME280;68816;45.558;10.070;2023-05-25T00:40:18;99818.81;;;17.69;73.32
63739;BME280;68816;45.558;10.070;2023-05-25T00:42:44;99831.97;;;17.63;73.45
63739;BME280;68816;45.558;10.070;2023-05-25T00:45:11;99833.41;;;17.51;73.38
63739;BME280;68816;45.558;10.070;2023-05-25T00:47:38;99801.91;;;17.30;72.86
63739;BME280;68816;45.558;10.070;2023-05-25T00:50:08;99844.56;;;17.56;73.08
63739;BME280;68816;45.558;10.070;2023-05-25T00:52:34;99848.22;;;17.51;74.11
63739;BME280;68816;45.558;10.070;2023-05-25T00:55:01;99838.19;;;17.45;74.75
63739;BME280;68816;45.558;10.070;2023-05-25T00:57:28;99847.69;;;17.44;75.15
63739;BME280;68816;45.558;10.070;2023-05-25T00:59:58;99852.44;;;17.44;74.26
63739;BME280;68816;45.558;10.070;2023-05-25T01:02:25;99818.72;;;17.20;73.82
63739;BME280;68816;45.558;10.070;2023-05-25T01:04:55;99861.94;;;17.43;75.65
63739;BME280;68816;45.558;10.070;2023-05-25T01:07:25;99832.97;;;17.23;76.29
63739;BME280;68816;45.558;10.070;2023-05-25T01:10:05;99871.44;;;17.42;75.27
63739;BME280;68816;45.558;10.070;2023-05-25T01:12:35;99854.16;;;17.35;74.72
63739;BME280;68816;45.558;10.070;2023-05-25T01:15:02;99870.88;;;17.50;74.47
63739;BME280;68816;45.558;10.070;2023-05-25T01:17:29;99865.06;;;17.31;73.36
63739;BME280;68816;45.558;10.070;2023-05-25T01:19:56;99850.03;;;17.17;74.53
63739;BME280;68816;45.558;10.070;2023-05-25T01:29:12;99855.59;;;17.22;74.34
63739;BME280;68816;45.558;10.070;2023-05-25T01:32:10;99840.81;;;17.16;73.70
63739;BME280;68816;45.558;10.070;2023-05-25T01:55:45;99895.59;;;17.17;76.81
63739;BME280;68816;45.558;10.070;2023-05-25T02:23:20;99896.13;;;17.30;73.36
63739;BME280;68816;45.558;10.070;2023-05-25T02:30:07;99896.34;;;17.38;76.26
63739;BME280;68816;45.558;10.070;2023-05-25T02:37:00;99905.06;;;17.21;77.02
63739;BME280;68816;45.558;10.070;2023-05-25T02:40:40;99894.72;;;17.22;77.43
63739;BME280;68816;45.558;10.070;2023-05-25T02:58:36;99904.84;;;16.88;77.29
63739;BME280;68816;45.558;10.070;2023-05-25T03:19:01;99905.97;;;16.61;77.20
63739;BME280;68816;45.558;10.070;2023-05-25T03:22:35;99918.22;;;16.55;78.52
63739;BME280;68816;45.558;10.070;2023-05-25T03:25:35;99918.28;;;16.70;77.01
63739;BME280;68816;45.558;10.070;2023-05-25T03:28:51;99928.59;;;16.75;76.12
63739;BME280;68816;45.558;10.070;2023-05-25T03:31:19;99908.75;;;16.66;76.12
63739;BME280;68816;45.558;10.070;2023-05-25T03:34:28;99923.59;;;16.77;74.07
63739;BME280;68816;45.558;10.070;2023-05-25T03:40:33;99877.19;;;16.51;74.09
63739;BME280;68816;45.558;10.070;2023-05-25T03:43:24;99905.69;;;16.68;73.71
63739;BME280;68816;45.558;10.070;2023-05-25T03:53:27;99934.72;;;16.72;72.78
63739;BME280;68816;45.558;10.070;2023-05-25T03:56:50;99894.78;;;16.56;73.05
63739;BME280;68816;45.558;10.070;2023-05-25T03:59:40;99942.53;;;16.90;72.27
63739;BME280;68816;45.558;10.070;2023-05-25T04:06:32;99929.16;;;16.82;73.87
63739;BME280;68816;45.558;10.070;2023-05-25T04:09:34;99960.16;;;17.06;73.83
63739;BME280;68816;45.558;10.070;2023-05-25T04:12:17;99960.13;;;17.21;73.06
63739;BME280;68816;45.558;10.070;2023-05-25T04:15:32;99960.09;;;17.26;76.34
63739;BME280;68816;45.558;10.070;2023-05-25T04:18:15;99967.41;;;17.12;77.06
63739;BME280;68816;45.558;10.070;2023-05-25T04:21:23;99965.44;;;17.22;74.79
63739;BME280;68816;45.558;10.070;2023-05-25T04:24:39;99976.88;;;17.21;77.04
63739;BME280;68816;45.558;10.070;2023-05-25T04:27:20;99950.09;;;17.05;78.23
63739;BME280;68816;45.558;10.070;2023-05-25T04:29:46;99986.38;;;17.30;78.41
63739;BME280;68816;45.558;10.070;2023-05-25T04:32:32;99972.13;;;17.27;76.63
63739;BME280;68816;45.558;10.070;2023-05-25T04:35:48;99980.22;;;17.33;78.06
63739;BME280;68816;45.558;10.070;2023-05-25T04:38:39;99965.97;;;17.35;77.36
63739;BME280;68816;45.558;10.070;2023-05-25T04:42:30;99986.34;;;17.50;76.92
63739;BME280;68816;45.558;10.070;2023-05-25T04:48:56;99957.03;;;17.28;77.29
63739;BME280;68816;45.558;10.070;2023-05-25T04:52:06;99997.53;;;17.60;77.61
63739;BME280;68816;45.558;10.070;2023-05-25T04:54:55;99966.22;;;17.43;76.04
63739;BME280;68816;45.558;10.070;2023-05-25T04:58:09;99961.16;;;17.55;75.78
63739;BME280;68816;45.558;10.070;2023-05-25T05:07:25;100007.22;;;17.93;75.26
63739;BME280;68816;45.558;10.070;2023-05-25T05:10:20;100013.03;;;18.07;75.59
63739;BME280;68816;45.558;10.070;2023-05-25T05:13:36;100014.63;;;18.23;75.25
63739;BME280;68816;45.558;10.070;2023-05-25T05:16:24;100021.31;;;18.32;74.67
63739;BME280;68816;45.558;10.070;2023-05-25T05:22:29;100022.88;;;18.54;72.16
63739;BME280;68816;45.558;10.070;2023-05-25T05:24:57;100035.78;;;18.55;71.16
63739;BME280;68816;45.558;10.070;2023-05-25T05:27:26;100011.41;;;18.50;72.31
63739;BME280;68816;45.558;10.070;2023-05-25T05:29:56;100035.06;;;18.78;69.66
63739;BME280;68816;45.558;10.070;2023-05-25T05:32:22;100035.59;;;18.85;68.94
63739;BME280;68816;45.558;10.070;2023-05-25T05:34:49;100037.19;;;18.96;68.92
63739;BME280;68816;45.558;10.070;2023-05-25T05:37:25;100049.41;;;19.10;67.48
63739;BME280;68816;45.558;10.070;2023-05-25T05:39:56;100048.22;;;19.16;69.04
63739;BME280;68816;45.558;10.070;2023-05-25T05:42:23;100037.09;;;19.06;67.23
63739;BME280;68816;45.558;10.070;2023-05-25T05:44:49;100056.69;;;19.11;67.08
63739;BME280;68816;45.558;10.070;2023-05-25T05:47:19;100056.19;;;19.04;69.31
63739;BME280;68816;45.558;10.070;2023-05-25T05:49:45;100061.91;;;19.23;68.80
63739;BME280;68816;45.558;10.070;2023-05-25T05:52:11;100051.81;;;19.27;69.67
63739;BME280;68816;45.558;10.070;2023-05-25T05:54:38;100049.66;;;19.14;68.24
63739;BME280;68816;45.558;10.070;2023-05-25T05:57:05;100051.81;;;19.27;67.12
63739;BME280;68816;45.558;10.070;2023-05-25T05:59:31;100014.72;;;19.01;65.81
63739;BME280;68816;45.558;10.070;2023-05-25T06:01:57;100056.88;;;19.25;66.68
63739;BME280;68816;45.558;10.070;2023-05-25T06:04:22;100061.72;;;19.14;67.04
63739;BME280;68816;45.558;10.070;2023-05-25T06:06:52;100068.38;;;19.23;66.91
63739;BME280;68816;45.558;10.070;2023-05-25T06:09:18;100068.22;;;19.44;66.85
63739;BME280;68816;45.558;10.070;2023-05-25T06:11:46;100083.34;;;19.48;66.72
63739;BME280;68816;45.558;10.070;2023-05-25T06:14:34;100082.16;;;19.54;68.19
63739;BME280;68816;45.558;10.070;2023-05-25T06:17:00;100082.41;;;19.57;67.81
63739;BME280;68816;45.558;10.070;2023-05-25T06:19:25;100086.13;;;19.48;68.20
63739;BME280;68816;45.558;10.070;2023-05-25T06:21:51;100084.06;;;19.58;66.70
63739;BME280;68816;45.558;10.070;2023-05-25T06:24:16;100092.16;;;19.65;65.84
63739;BME280;68816;45.558;10.070;2023-05-25T06:26:41;100102.25;;;19.66;65.36
63739;BME280;68816;45.558;10.070;2023-05-25T06:29:07;100094.13;;;19.64;65.01
63739;BME280;68816;45.558;10.070;2023-05-25T06:31:32;100106.78;;;19.62;65.84
63739;BME280;68816;45.558;10.070;2023-05-25T06:33:58;100116.06;;;19.57;64.44
63739;BME280;68816;45.558;10.070;2023-05-25T06:36:24;100120.31;;;19.55;63.89
63739;BME280;68816;45.558;10.070;2023-05-25T06:38:51;100102.69;;;19.44;69.46
63739;BME280;68816;45.558;10.070;2023-05-25T06:41:17;100122.50;;;19.58;66.35
63739;BME280;68816;45.558;10.070;2023-05-25T06:43:43;100129.72;;;19.69;63.74
63739;BME280;68816;45.558;10.070;2023-05-25T06:46:10;100131.78;;;19.87;60.80
63739;BME280;68816;45.558;10.070;2023-05-25T06:48:43;100066.75;;;19.51;60.79
63739;BME280;68816;45.558;10.070;2023-05-25T06:51:10;100126.66;;;19.94;60.18
63739;BME280;68816;45.558;10.070;2023-05-25T06:53:39;100114.88;;;19.97;60.28
63739;BME280;68816;45.558;10.070;2023-05-25T06:57:00;100139.34;;;20.16;61.89
63739;BME280;68816;45.558;10.070;2023-05-25T07:00:11;100125.78;;;20.23;60.35
63739;BME280;68816;45.558;10.070;2023-05-25T07:02:51;100135.03;;;19.99;63.90
63739;BME280;68816;45.558;10.070;2023-05-25T07:05:30;100139.97;;;20.13;62.26
63739;BME280;68816;45.558;10.070;2023-05-25T07:08:07;100128.59;;;20.23;65.39
63739;BME280;68816;45.558;10.070;2023-05-25T07:10:39;100135.47;;;20.40;58.89
63739;BME280;68816;45.558;10.070;2023-05-25T07:13:16;100105.31;;;20.46;59.23
63739;BME280;68816;45.558;10.070;2023-05-25T07:15:48;100147.50;;;20.88;59.04
63739;BME280;68816;45.558;10.070;2023-05-25T07:18:23;100138.06;;;20.98;57.01
63739;BME280;68816;45.558;10.070;2023-05-25T07:21:00;100137.69;;;21.05;57.41
63739;BME280;68816;45.558;10.070;2023-05-25T07:23:35;100140.63;;;21.18;56.27
63739;BME280;68816;45.558;10.070;2023-05-25T07:28:59;100124.88;;;21.36;55.23
63739;BME280;68816;45.558;10.070;2023-05-25T07:31:38;100140.28;;;21.57;55.51
63739;BME280;68816;45.558;10.070;2023-05-25T07:34:04;100149.78;;;21.61;55.11
63739;BME280;68816;45.558;10.070;2023-05-25T07:36:30;100141.19;;;21.71;54.90
63739;BME280;68816;45.558;10.070;2023-05-25T07:38:56;100141.09;;;21.77;54.77
63739;BME280;68816;45.558;10.070;2023-05-25T07:41:22;100146.19;;;21.75;56.44
63739;BME280;68816;45.558;10.070;2023-05-25T07:43:47;100137.13;;;21.26;58.00
63739;BME280;68816;45.558;10.070;2023-05-25T07:46:13;100145.38;;;21.55;59.40
63739;BME280;68816;45.558;10.070;2023-05-25T07:48:38;100148.19;;;21.55;56.97
63739;BME280;68816;45.558;10.070;2023-05-25T07:51:04;100154.38;;;21.57;55.73
63739;BME280;68816;45.558;10.070;2023-05-25T07:53:29;100153.59;;;21.70;56.14
63739;BME280;68816;45.558;10.070;2023-05-25T07:55:55;100145.94;;;21.90;54.94
63739;BME280;68816;45.558;10.070;2023-05-25T07:58:21;100154.97;;;22.05;55.19
63739;BME280;68816;45.558;10.070;2023-05-25T08:00:46;100147.91;;;22.22;55.19
63739;BME280;68816;45.558;10.070;2023-05-25T08:03:14;100155.13;;;22.41;55.01
63739;BME280;68816;45.558;10.070;2023-05-25T08:05:41;100162.25;;;22.52;53.35
63739;BME280;68816;45.558;10.070;2023-05-25T08:08:08;100156.59;;;22.39;55.49
63739;BME280;68816;45.558;10.070;2023-05-25T08:10:38;100159.59;;;22.42;52.58
63739;BME280;68816;45.558;10.070;2023-05-25T08:13:27;100158.66;;;22.61;55.64
63739;BME280;68816;45.558;10.070;2023-05-25T08:16:03;100152.91;;;22.66;55.50
63739;BME280;68816;45.558;10.070;2023-05-25T08:18:34;100178.94;;;22.90;54.27
63739;BME280;68816;45.558;10.070;2023-05-25T08:21:00;100174.25;;;22.99;52.70
63739;BME280;68816;45.558;10.070;2023-05-25T08:23:25;100179.03;;;23.12;51.49
63739;BME280;68816;45.558;10.070;2023-05-25T08:25:51;100185.31;;;23.09;52.74
63739;BME280;68816;45.558;10.070;2023-05-25T08:28:17;100185.34;;;22.82;53.32
63739;BME280;68816;45.558;10.070;2023-05-25T08:30:44;100194.53;;;22.87;54.33
63739;BME280;68816;45.558;10.070;2023-05-25T08:33:11;100189.19;;;22.72;54.76
63739;BME280;68816;45.558;10.070;2023-05-25T08:35:37;100208.31;;;22.75;54.63
63739;BME280;68816;45.558;10.070;2023-05-25T08:38:05;100202.34;;;22.90;55.10
63739;BME280;68816;45.558;10.070;2023-05-25T08:40:30;100209.94;;;22.63;54.34
63739;BME280;68816;45.558;10.070;2023-05-25T08:42:56;100207.91;;;22.82;55.17
63739;BME280;68816;45.558;10.070;2023-05-25T08:45:22;100212.78;;;23.17;54.92
63739;BME280;68816;45.558;10.070;2023-05-25T08:47:51;100213.94;;;23.16;54.22
63739;BME280;68816;45.558;10.070;2023-05-25T08:50:17;100216.16;;;22.92;53.82
63739;BME280;68816;45.558;10.070;2023-05-25T08:52:50;100225.13;;;22.94;53.59
63739;BME280;68816;45.558;10.070;2023-05-25T08:55:18;100206.13;;;22.86;53.96
63739;BME280;68816;45.558;10.070;2023-05-25T08:58:04;100223.94;;;22.68;54.83
63739;BME280;68816;45.558;10.070;2023-05-25T09:00:43;100204.34;;;22.90;53.30
63739;BME280;68816;45.558;10.070;2023-05-25T09:03:18;100234.38;;;23.35;56.95
63739;BME280;68816;45.558;10.070;2023-05-25T09:05:55;100231.13;;;23.42;54.54
63739;BME280;68816;45.558;10.070;2023-05-25T09:08:22;100238.28;;;23.12;54.01
63739;BME280;68816;45.558;10.070;2023-05-25T09:10:49;100234.28;;;23.27;54.56
63739;BME280;68816;45.558;10.070;2023-05-25T09:13:16;100222.09;;;23.18;53.58
63739;BME280;68816;45.558;10.070;2023-05-25T09:15:41;100230.94;;;23.39;51.61
63739;BME280;68816;45.558;10.070;2023-05-25T09:18:08;100246.00;;;23.34;52.19
63739;BME280;68816;45.558;10.070;2023-05-25T09:20:33;100241.19;;;23.34;51.33
63739;BME280;68816;45.558;10.070;2023-05-25T09:22:59;100244.38;;;23.69;51.16
63739;BME280;68816;45.558;10.070;2023-05-25T09:25:27;100224.22;;;23.62;50.59
63739;BME280;68816;45.558;10.070;2023-05-25T09:27:53;100247.50;;;23.67;50.39
63739;BME280;68816;45.558;10.070;2023-05-25T09:30:33;100253.28;;;23.98;49.57
63739;BME280;68816;45.558;10.070;2023-05-25T09:33:13;100255.47;;;24.24;49.43
63739;BME280;68816;45.558;10.070;2023-05-25T09:35:42;100270.66;;;24.28;48.56
63739;BME280;68816;45.558;10.070;2023-05-25T09:38:07;100266.19;;;24.35;47.07
63739;BME280;68816;45.558;10.070;2023-05-25T09:40:33;100266.53;;;24.34;46.81
63739;BME280;68816;45.558;10.070;2023-05-25T09:43:27;100277.88;;;24.42;48.49
63739;BME280;68816;45.558;10.070;2023-05-25T09:46:23;100283.16;;;24.58;46.98
63739;BME280;68816;45.558;10.070;2023-05-25T09:48:58;100261.44;;;24.44;46.15
63739;BME280;68816;45.558;10.070;2023-05-25T09:51:25;100269.56;;;24.68;46.80
63739;BME280;68816;45.558;10.070;2023-05-25T09:53:52;100273.94;;;24.74;46.96
63739;BME280;68816;45.558;10.070;2023-05-25T09:56:17;100254.88;;;24.88;47.33
63739;BME280;68816;45.558;10.070;2023-05-25T09:58:44;100265.47;;;25.14;46.20
63739;BME280;68816;45.558;10.070;2023-05-25T10:01:10;100261.88;;;25.39;47.49
63739;BME280;68816;45.558;10.070;2023-05-25T10:03:47;100273.00;;;25.27;44.18
63739;BME280;68816;45.558;10.070;2023-05-25T10:06:17;100277.56;;;25.06;42.25
63739;BME280;68816;45.558;10.070;2023-05-25T10:08:43;100277.78;;;24.87;42.47
63739;BME280;68816;45.558;10.070;2023-05-25T10:11:32;100279.91;;;25.04;45.10
63739;BME280;68816;45.558;10.070;2023-05-25T10:14:05;100271.78;;;24.80;43.20
63739;BME280;68816;45.558;10.070;2023-05-25T10:16:32;100280.25;;;25.11;46.85
63739;BME280;68816;45.558;10.070;2023-05-25T10:19:18;100267.63;;;25.17;44.26
63739;BME280;68816;45.558;10.070;2023-05-25T10:21:50;100269.16;;;25.23;42.94
63739;BME280;68816;45.558;10.070;2023-05-25T10:24:36;100260.38;;;25.33;42.29
63739;BME280;68816;45.558;10.070;2023-05-25T10:27:03;100270.84;;;25.32;42.19
63739;BME280;68816;45.558;10.070;2023-05-25T10:29:32;100266.56;;;25.44;42.78
63739;BME280;68816;45.558;10.070;2023-05-25T10:32:03;100263.28;;;25.59;42.01
63739;BME280;68816;45.558;10.070;2023-05-25T10:34:30;100272.97;;;25.66;41.07
63739;BME280;68816;45.558;10.070;2023-05-25T10:36:59;100262.88;;;25.43;41.35
63739;BME280;68816;45.558;10.070;2023-05-25T10:39:26;100273.97;;;25.79;41.91
63739;BME280;68816;45.558;10.070;2023-05-25T10:41:55;100270.13;;;26.18;42.80
63739;BME280;68816;45.558;10.070;2023-05-25T10:44:23;100267.63;;;26.42;43.48
63739;BME280;68816;45.558;10.070;2023-05-25T10:46:50;100274.44;;;26.58;40.47
63739;BME280;68816;45.558;10.070;2023-05-25T10:49:55;100280.78;;;26.55;38.53
63739;BME280;68816;45.558;10.070;2023-05-25T10:52:27;100274.81;;;26.31;39.02
63739;BME280;68816;45.558;10.070;2023-05-25T10:54:57;100268.81;;;26.07;40.06
63739;BME280;68816;45.558;10.070;2023-05-25T10:57:28;100268.66;;;26.03;40.63
63739;BME280;68816;45.558;10.070;2023-05-25T11:00:06;100260.47;;;26.02;39.70
63739;BME280;68816;45.558;10.070;2023-05-25T11:02:59;100258.47;;;25.94;40.55
63739;BME280;68816;45.558;10.070;2023-05-25T11:05:49;100260.31;;;25.90;40.08
63739;BME280;68816;45.558;10.070;2023-05-25T11:08:49;100249.63;;;25.78;40.64
63739;BME280;68816;45.558;10.070;2023-05-25T11:12:00;100266.78;;;25.82;39.08
63739;BME280;68816;45.558;10.070;2023-05-25T11:15:12;100255.31;;;25.95;39.84
63739;BME280;68816;45.558;10.070;2023-05-25T11:18:03;100242.13;;;25.99;41.02
63739;BME280;68816;45.558;10.070;2023-05-25T11:20:32;100221.31;;;25.78;41.45
63739;BME280;68816;45.558;10.070;2023-05-25T11:23:23;100252.63;;;25.99;40.51
63739;BME280;68816;45.558;10.070;2023-05-25T11:25:49;100198.13;;;25.67;39.68
63739;BME280;68816;45.558;10.070;2023-05-25T11:28:15;100253.13;;;26.18;40.24
63739;BME280;68816;45.558;10.070;2023-05-25T11:30:47;100213.63;;;25.96;39.89
63739;BME280;68816;45.558;10.070;2023-05-25T11:33:19;100248.28;;;26.18;40.07
63739;BME280;68816;45.558;10.070;2023-05-25T11:35:47;100252.47;;;26.38;41.61
63739;BME280;68816;45.558;10.070;2023-05-25T11:38:46;100245.31;;;26.24;41.16
63739;BME280;68816;45.558;10.070;2023-05-25T11:41:20;100226.25;;;26.15;41.96
63739;BME280;68816;45.558;10.070;2023-05-25T11:44:03;100242.94;;;26.17;41.12
63739;BME280;68816;45.558;10.070;2023-05-25T11:46:30;100245.13;;;26.03;40.65
63739;BME280;68816;45.558;10.070;2023-05-25T11:48:58;100247.47;;;26.27;42.56
63739;BME280;68816;45.558;10.070;2023-05-25T11:51:26;100244.63;;;26.35;43.59
63739;BME280;68816;45.558;10.070;2023-05-25T11:53:52;100240.59;;;26.45;42.58
63739;BME280;68816;45.558;10.070;2023-05-25T11:56:19;100176.44;;;26.06;42.73
63739;BME280;68816;45.558;10.070;2023-05-25T11:58:50;100220.78;;;26.19;41.01
63739;BME280;68816;45.558;10.070;2023-05-25T12:01:22;100233.56;;;26.51;42.36
63739;BME280;68816;45.558;10.070;2023-05-25T12:03:53;100240.25;;;26.55;42.14
63739;BME280;68816;45.558;10.070;2023-05-25T12:06:29;100233.09;;;26.49;41.47
63739;BME280;68816;45.558;10.070;2023-05-25T12:08:57;100228.34;;;26.70;42.79
63739;BME280;68816;45.558;10.070;2023-05-25T12:11:34;100201.97;;;26.70;42.31
63739;BME280;68816;45.558;10.070;2023-05-25T12:14:10;100185.53;;;26.46;40.98
63739;BME280;68816;45.558;10.070;2023-05-25T12:16:38;100187.56;;;26.37;40.00
63739;BME280;68816;45.558;10.070;2023-05-25T12:19:06;100211.63;;;26.69;40.35
63739;BME280;68816;45.558;10.070;2023-05-25T12:21:32;100203.28;;;26.72;39.83
63739;BME280;68816;45.558;10.070;2023-05-25T12:24:08;100213.56;;;26.94;38.41
63739;BME280;68816;45.558;10.070;2023-05-25T12:26:50;100210.28;;;26.75;37.80
63739;BME280;68816;45.558;10.070;2023-05-25T12:29:22;100201.06;;;26.95;39.24
63739;BME280;68816;45.558;10.070;2023-05-25T12:31:47;100207.47;;;27.13;37.80
63739;BME280;68816;45.558;10.070;2023-05-25T12:34:14;100201.75;;;26.83;38.00
63739;BME280;68816;45.558;10.070;2023-05-25T12:37:21;100201.06;;;26.86;36.97
63739;BME280;68816;45.558;10.070;2023-05-25T12:40:19;100197.22;;;26.91;36.47
63739;BME280;68816;45.558;10.070;2023-05-25T12:42:54;100198.75;;;26.88;36.65
63739;BME280;68816;45.558;10.070;2023-05-25T12:45:21;100191.50;;;27.00;37.49
63739;BME280;68816;45.558;10.070;2023-05-25T12:47:46;100199.38;;;27.23;38.12
63739;BME280;68816;45.558;10.070;2023-05-25T12:50:13;100165.97;;;27.20;37.91
63739;BME280;68816;45.558;10.070;2023-05-25T12:53:05;100192.63;;;27.36;36.79
63739;BME280;68816;45.558;10.070;2023-05-25T12:56:07;100205.56;;;27.55;36.54
63739;BME280;68816;45.558;10.070;2023-05-25T12:58:53;100191.38;;;27.46;36.28
63739;BME280;68816;45.558;10.070;2023-05-25T13:01:20;100197.69;;;27.72;38.10
63739;BME280;68816;45.558;10.070;2023-05-25T13:03:47;100193.97;;;27.60;36.12
63739;BME280;68816;45.558;10.070;2023-05-25T13:06:13;100186.00;;;27.74;36.04
63739;BME280;68816;45.558;10.070;2023-05-25T13:08:38;100184.63;;;27.59;35.49
63739;BME280;68816;45.558;10.070;2023-05-25T13:11:04;100187.47;;;27.59;35.14
63739;BME280;68816;45.558;10.070;2023-05-25T13:13:41;100187.22;;;27.85;35.22
63739;BME280;68816;45.558;10.070;2023-05-25T13:16:11;100184.59;;;28.01;35.42
63739;BME280;68816;45.558;10.070;2023-05-25T13:18:37;100177.84;;;28.05;34.75
63739;BME280;68816;45.558;10.070;2023-05-25T13:21:02;100175.00;;;28.05;34.52
63739;BME280;68816;45.558;10.070;2023-05-25T13:23:28;100166.66;;;27.88;33.88
63739;BME280;68816;45.558;10.070;2023-05-25T13:25:53;100174.09;;;28.13;34.13
63739;BME280;68816;45.558;10.070;2023-05-25T13:28:19;100174.56;;;28.36;34.73
63739;BME280;68816;45.558;10.070;2023-05-25T13:30:44;100149.88;;;28.28;32.54
63739;BME280;68816;45.558;10.070;2023-05-25T13:33:10;100168.34;;;28.22;33.84
63739;BME280;68816;45.558;10.070;2023-05-25T13:35:35;100165.63;;;28.38;34.81
63739;BME280;68816;45.558;10.070;2023-05-25T13:38:05;100157.34;;;28.33;32.23
63739;BME280;68816;45.558;10.070;2023-05-25T13:40:31;100165.22;;;28.15;34.49
63739;BME280;68816;45.558;10.070;2023-05-25T13:43:24;100159.47;;;28.24;33.62
63739;BME280;68816;45.558;10.070;2023-05-25T13:45:51;100160.94;;;28.42;33.90
63739;BME280;68816;45.558;10.070;2023-05-25T13:48:27;100163.06;;;28.57;34.47
63739;BME280;68816;45.558;10.070;2023-05-25T13:51:30;100141.47;;;28.44;36.46
63739;BME280;68816;45.558;10.070;2023-05-25T13:54:13;100169.28;;;28.83;34.44
63739;BME280;68816;45.558;10.070;2023-05-25T13:56:49;100165.09;;;28.69;33.92
63739;BME280;68816;45.558;10.070;2023-05-25T13:59:15;100164.19;;;28.32;34.21
63739;BME280;68816;45.558;10.070;2023-05-25T14:02:02;100160.09;;;28.41;34.93
63739;BME280;68816;45.558;10.070;2023-05-25T14:04:55;100166.56;;;28.75;35.88
63739;BME280;68816;45.558;10.070;2023-05-25T14:08:26;100157.19;;;28.98;34.54
63739;BME280;68816;45.558;10.070;2023-05-25T14:11:35;100150.75;;;29.26;34.49
63739;BME280;68816;45.558;10.070;2023-05-25T14:15:10;100145.06;;;29.38;33.93
63739;BME280;68816;45.558;10.070;2023-05-25T14:17:46;100145.06;;;28.89;34.86
63739;BME280;68816;45.558;10.070;2023-05-25T14:20:20;100141.03;;;29.03;33.90
63739;BME280;68816;45.558;10.070;2023-05-25T14:23:01;100142.66;;;28.55;34.63
63739;BME280;68816;45.558;10.070;2023-05-25T14:25:26;100143.97;;;28.45;34.27
63739;BME280;68816;45.558;10.070;2023-05-25T14:28:04;100145.22;;;28.81;33.45
63739;BME280;68816;45.558;10.070;2023-05-25T14:30:29;100142.81;;;29.07;33.15
63739;BME280;68816;45.558;10.070;2023-05-25T14:32:55;100138.69;;;29.05;32.55
63739;BME280;68816;45.558;10.070;2023-05-25T14:35:20;100138.66;;;29.29;33.19
63739;BME280;68816;45.558;10.070;2023-05-25T14:37:47;100131.00;;;29.57;31.53
63739;BME280;68816;45.558;10.070;2023-05-25T14:40:19;100140.47;;;29.89;36.14
63739;BME280;68816;45.558;10.070;2023-05-25T14:42:55;100132.81;;;29.77;32.08
63739;BME280;68816;45.558;10.070;2023-05-25T14:45:22;100150.00;;;30.21;33.73
63739;BME280;68816;45.558;10.070;2023-05-25T14:47:54;100139.38;;;30.49;32.98
63739;BME280;68816;45.558;10.070;2023-05-25T14:53:37;100162.75;;;29.71;31.09
63739;BME280;68816;45.558;10.070;2023-05-25T14:56:03;100162.13;;;29.50;30.94
63739;BME280;68816;45.558;10.070;2023-05-25T14:58:34;100145.22;;;29.69;31.38
63739;BME280;68816;45.558;10.070;2023-05-25T15:01:01;100161.06;;;29.83;31.84
63739;BME280;68816;45.558;10.070;2023-05-25T15:03:38;100172.59;;;29.22;32.78
63739;BME280;68816;45.558;10.070;2023-05-25T15:06:32;100161.22;;;28.97;33.26
63739;BME280;68816;45.558;10.070;2023-05-25T15:09:17;100162.63;;;29.28;33.57
63739;BME280;68816;45.558;10.070;2023-05-25T15:11:57;100159.06;;;29.43;33.12
63739;BME280;68816;45.558;10.070;2023-05-25T15:14:26;100117.31;;;28.98;33.54
63739;BME280;68816;45.558;10.070;2023-05-25T15:16:55;100163.13;;;28.93;33.25
63739;BME280;68816;45.558;10.070;2023-05-25T15:19:21;100147.31;;;29.20;35.90
63739;BME280;68816;45.558;10.070;2023-05-25T15:22:06;100156.25;;;28.82;34.67
63739;BME280;68816;45.558;10.070;2023-05-25T15:24:35;100106.28;;;28.36;34.18
63739;BME280;68816;45.558;10.070;2023-05-25T15:27:02;100129.91;;;28.73;34.28
63739;BME280;68816;45.558;10.070;2023-05-25T15:29:29;100166.00;;;28.48;34.54
63739;BME280;68816;45.558;10.070;2023-05-25T15:31:55;100161.00;;;28.33;34.82
63739;BME280;68816;45.558;10.070;2023-05-25T15:34:25;100166.19;;;29.00;34.10